Time;durP1;ratioP1;P1;durP2;ratioP2;P2;SDS_P1;SDS_P2;PMS_P1;PMS_P2;Temp;Humidity;BMP_temperature;BMP_pressure;BME280_temperature;BME280_humidity;BME280_pressure;Samples;Min_cycle;Max_cycle;Signal;HPM_P1;HPM_P2
2021/04/02 00:02:00;;;;;;;39.00;30.87;;;14.80;99.90;;;;;;4994031;28;20453;-73
2021/04/02 00:04:26;;;;;;;39.97;32.10;;;14.80;99.90;;;;;;4993492;28;20489;-73
2021/04/02 00:06:52;;;;;;;43.93;32.37;;;14.80;99.90;;;;;;4993995;28;20461;-73
2021/04/02 00:09:19;;;;;;;42.17;31.90;;;14.70;99.90;;;;;;4997402;28;20593;-73
2021/04/02 00:11:45;;;;;;;38.50;30.77;;;14.70;99.90;;;;;;4997674;28;20484;-73
2021/04/02 00:14:11;;;;;;;45.30;31.30;;;14.70;99.90;;;;;;4997726;28;20500;-73
2021/04/02 00:16:38;;;;;;;45.13;32.27;;;14.70;99.90;;;;;;4997322;28;20948;-73
2021/04/02 00:19:04;;;;;;;40.27;30.83;;;14.60;99.90;;;;;;4997631;28;20453;-73
2021/04/02 00:21:31;;;;;;;42.47;31.47;;;14.50;99.90;;;;;;4997704;28;21011;-74
2021/04/02 00:23:57;;;;;;;43.00;33.57;;;14.40;99.90;;;;;;4997733;28;20843;-74
2021/04/02 00:26:25;;;;;;;48.37;34.03;;;14.40;99.90;;;;;;4998218;28;20458;-73
2021/04/02 00:28:52;;;;;;;44.10;33.97;;;14.30;99.90;;;;;;4998084;28;20460;-73
2021/04/02 00:31:18;;;;;;;49.00;33.57;;;14.30;99.90;;;;;;4997472;28;20992;-73
2021/04/02 00:33:44;;;;;;;45.40;33.27;;;14.30;99.90;;;;;;4998646;28;20478;-73
2021/04/02 00:36:11;;;;;;;42.33;33.43;;;14.20;99.90;;;;;;4997937;28;20460;-74
2021/04/02 00:38:37;;;;;;;42.50;32.27;;;14.20;99.90;;;;;;4996997;28;20460;-73
2021/04/02 00:41:07;;;;;;;41.80;33.53;;;14.20;99.90;;;;;;4997008;28;20457;-74
2021/04/02 00:43:37;;;;;;;40.57;32.07;;;14.30;99.90;;;;;;4996778;28;20474;-73
2021/04/02 00:46:03;;;;;;;44.23;31.70;;;14.20;99.90;;;;;;4997034;28;20820;-75
2021/04/02 00:48:30;;;;;;;40.10;30.40;;;14.10;99.90;;;;;;4996778;28;20964;-73
2021/04/02 00:50:58;;;;;;;37.30;30.63;;;14.10;99.90;;;;;;4996901;28;20454;-74
2021/04/02 00:53:27;;;;;;;40.53;30.70;;;14.10;99.90;;;;;;4996394;28;20839;-74
2021/04/02 00:55:54;;;;;;;39.30;30.90;;;14.10;99.90;;;;;;4996916;28;20450;-75
2021/04/02 00:58:23;;;;;;;42.20;29.60;;;14.00;99.90;;;;;;4996616;28;20450;-73
2021/04/02 01:00:50;;;;;;;38.40;29.33;;;13.90;99.90;;;;;;4996853;28;20461;-73
2021/04/02 01:03:18;;;;;;;42.83;28.40;;;13.90;99.90;;;;;;4996494;28;20481;-74
2021/04/02 01:05:46;;;;;;;35.80;26.93;;;13.80;99.90;;;;;;4997007;28;20456;-74
2021/04/02 01:08:16;;;;;;;34.23;26.87;;;13.70;99.90;;;;;;4998272;28;20449;-73
2021/04/02 01:10:43;;;;;;;37.30;26.30;;;13.70;99.90;;;;;;5020381;28;20421;-75
2021/04/02 01:13:13;;;;;;;38.57;26.57;;;13.60;99.90;;;;;;5005624;28;20488;-75
2021/04/02 01:15:43;;;;;;;35.67;25.43;;;13.60;99.90;;;;;;4997679;28;20461;-74
2021/04/02 01:18:22;;;;;;;34.83;23.60;;;13.60;99.90;;;;;;4996652;28;20446;-75
2021/04/02 01:20:51;;;;;;;28.27;21.37;;;13.50;99.90;;;;;;4995932;28;20437;-75
2021/04/02 01:23:20;;;;;;;26.67;19.07;;;13.30;99.90;;;;;;4996431;28;20478;-75
2021/04/02 01:25:53;;;;;;;25.80;20.30;;;13.30;99.90;;;;;;4996554;28;20464;-75
2021/04/02 01:28:50;;;;;;;30.13;20.07;;;13.20;99.90;;;;;;4996635;28;20442;-75
2021/04/02 01:31:18;;;;;;;24.97;19.03;;;13.20;99.90;;;;;;4992288;28;20465;-75
2021/04/02 01:33:45;;;;;;;28.03;19.70;;;13.10;99.90;;;;;;4996434;28;20817;-75
2021/04/02 01:36:13;;;;;;;21.57;18.47;;;13.00;99.90;;;;;;4996517;28;20457;-75
2021/04/02 01:38:41;;;;;;;23.60;18.70;;;13.00;99.90;;;;;;4996072;28;20937;-74
2021/04/02 01:41:10;;;;;;;20.73;15.60;;;12.90;99.90;;;;;;4997897;28;20957;-74
2021/04/02 01:43:40;;;;;;;24.17;16.17;;;13.00;99.90;;;;;;4996409;28;20525;-75
2021/04/02 01:46:07;;;;;;;18.47;15.40;;;12.90;99.90;;;;;;4996225;28;20458;-74
2021/04/02 01:48:36;;;;;;;23.70;15.83;;;12.90;99.90;;;;;;4996143;28;20466;-75
2021/04/02 01:51:04;;;;;;;18.47;15.67;;;12.80;99.90;;;;;;4996023;28;20450;-74
2021/04/02 01:53:34;;;;;;;23.00;15.50;;;12.90;99.90;;;;;;4995942;28;20474;-75
2021/04/02 01:56:02;;;;;;;22.10;15.07;;;12.80;99.90;;;;;;4996874;28;20785;-75
2021/04/02 01:58:31;;;;;;;20.87;14.93;;;12.80;99.90;;;;;;4996462;28;20457;-75
2021/04/02 02:00:59;;;;;;;16.90;13.47;;;12.70;99.90;;;;;;4996009;28;20458;-74
2021/04/02 02:03:28;;;;;;;14.87;12.50;;;12.60;99.90;;;;;;4995661;28;20477;-75
2021/04/02 02:05:56;;;;;;;16.80;11.77;;;12.50;99.90;;;;;;4995668;28;20461;-73
2021/04/02 02:08:25;;;;;;;14.47;12.23;;;12.50;99.90;;;;;;4995636;28;20484;-75
2021/04/02 02:11:00;;;;;;;16.30;10.20;;;12.50;99.90;;;;;;4995976;28;20458;-75
2021/04/02 02:13:28;;;;;;;19.03;10.33;;;12.40;99.90;;;;;;4995669;28;20587;-74
2021/04/02 02:15:56;;;;;;;12.97;9.97;;;12.30;99.90;;;;;;4995512;28;20809;-74
2021/04/02 02:18:26;;;;;;;13.43;9.70;;;12.30;99.90;;;;;;4995459;28;20458;-73
2021/04/02 02:20:53;;;;;;;12.10;9.47;;;12.30;99.90;;;;;;4995473;28;20438;-75
2021/04/02 02:23:20;;;;;;;13.10;8.73;;;12.30;99.90;;;;;;4995259;28;20473;-74
2021/04/02 02:25:47;;;;;;;11.13;8.80;;;12.30;99.90;;;;;;4995648;28;20465;-74
2021/04/02 02:28:13;;;;;;;10.17;8.60;;;12.20;99.90;;;;;;4995305;28;20457;-74
2021/04/02 02:30:40;;;;;;;15.33;9.30;;;12.20;99.90;;;;;;4994611;28;20952;-74
2021/04/02 02:33:06;;;;;;;12.00;9.70;;;12.20;99.90;;;;;;4995062;28;20517;-74
2021/04/02 02:35:33;;;;;;;11.37;9.90;;;12.10;99.90;;;;;;4995480;28;20469;-74
2021/04/02 02:38:01;;;;;;;11.17;8.97;;;12.00;99.90;;;;;;4995158;28;20843;-74
2021/04/02 02:40:30;;;;;;;13.17;9.43;;;12.00;99.90;;;;;;4996084;28;20450;-74
2021/04/02 02:42:58;;;;;;;12.67;9.50;;;11.90;99.90;;;;;;4995261;28;20934;-73
2021/04/02 02:45:26;;;;;;;11.60;9.37;;;11.90;99.90;;;;;;4995074;28;20457;-74
2021/04/02 02:47:52;;;;;;;15.50;10.00;;;11.90;99.90;;;;;;4994953;28;20457;-74
2021/04/02 02:50:21;;;;;;;13.30;10.83;;;11.90;99.90;;;;;;4994516;28;20465;-74
2021/04/02 02:52:49;;;;;;;11.67;10.47;;;11.90;99.90;;;;;;4994304;28;20996;-75
2021/04/02 02:55:16;;;;;;;14.07;10.63;;;11.80;99.90;;;;;;4994878;28;20496;-74
2021/04/02 02:57:45;;;;;;;12.80;11.40;;;11.70;99.90;;;;;;4994698;28;20457;-74
2021/04/02 03:00:14;;;;;;;12.17;9.80;;;11.70;99.90;;;;;;4994757;28;20457;-73
2021/04/02 03:02:42;;;;;;;11.63;9.40;;;11.60;99.90;;;;;;4994483;28;20485;-74
2021/04/02 03:05:11;;;;;;;15.03;9.67;;;11.60;99.90;;;;;;4994626;28;20814;-74
2021/04/02 03:07:39;;;;;;;10.60;8.10;;;11.50;99.90;;;;;;4994567;28;20460;-74
2021/04/02 03:10:10;;;;;;;10.57;7.80;;;11.50;99.90;;;;;;4994470;28;20504;-73
2021/04/02 03:12:40;;;;;;;10.27;8.13;;;11.50;99.90;;;;;;4994376;28;20481;-73
2021/04/02 03:15:08;;;;;;;10.00;8.00;;;11.40;99.90;;;;;;4994421;28;20458;-75
2021/04/02 03:17:35;;;;;;;10.33;8.10;;;11.30;99.90;;;;;;4994558;28;20469;-75
2021/04/02 03:20:03;;;;;;;9.20;8.00;;;11.30;99.90;;;;;;4994544;28;20465;-75
2021/04/02 03:22:29;;;;;;;10.03;6.80;;;11.20;99.90;;;;;;4994213;28;21003;-75
2021/04/02 03:24:58;;;;;;;10.83;6.70;;;11.10;99.90;;;;;;4994196;28;20458;-75
2021/04/02 03:27:27;;;;;;;9.50;6.70;;;11.00;99.90;;;;;;4994038;28;21011;-75
2021/04/02 03:29:54;;;;;;;7.10;6.33;;;11.00;99.90;;;;;;4993997;28;20461;-75
2021/04/02 03:32:23;;;;;;;7.67;6.30;;;10.90;99.90;;;;;;4994085;28;20829;-75
2021/04/02 03:34:50;;;;;;;10.03;6.57;;;10.80;99.90;;;;;;4994168;28;20458;-75
2021/04/02 03:37:17;;;;;;;6.77;4.90;;;10.80;99.90;;;;;;4994285;28;20469;-75
2021/04/02 03:39:46;;;;;;;9.93;4.87;;;10.70;99.90;;;;;;4994000;28;20449;-75
2021/04/02 03:42:14;;;;;;;8.87;5.23;;;10.70;99.90;;;;;;4994716;28;20449;-74
2021/04/02 03:44:43;;;;;;;5.20;4.80;;;10.60;99.90;;;;;;4998298;28;20460;-75
2021/04/02 03:47:13;;;;;;;7.63;4.53;;;10.50;99.90;;;;;;4998502;28;20465;-75
2021/04/02 03:49:40;;;;;;;4.40;4.00;;;10.40;99.90;;;;;;4998246;28;20909;-75
2021/04/02 03:52:10;;;;;;;5.03;3.60;;;10.30;99.90;;;;;;4998392;28;20477;-75
2021/04/02 03:54:37;;;;;;;7.00;3.43;;;10.30;99.90;;;;;;4998723;28;20453;-74
2021/04/02 03:57:06;;;;;;;6.83;4.53;;;10.30;99.90;;;;;;4998180;28;20464;-75
2021/04/02 03:59:36;;;;;;;3.67;3.20;;;10.10;99.90;;;;;;4998229;28;20508;-74
2021/04/02 04:02:05;;;;;;;4.77;3.93;;;10.00;99.90;;;;;;5002732;28;20437;-74
2021/04/02 04:04:32;;;;;;;6.77;3.20;;;10.00;99.90;;;;;;5022191;28;20512;-74
2021/04/02 04:07:01;;;;;;;3.93;3.10;;;9.90;99.90;;;;;;5001969;28;20462;-74
2021/04/02 04:09:28;;;;;;;6.00;4.20;;;9.90;99.90;;;;;;4998796;28;20454;-74
2021/04/02 04:11:56;;;;;;;4.03;3.07;;;9.80;99.90;;;;;;4997919;28;20504;-74
2021/04/02 04:14:23;;;;;;;5.53;2.90;;;9.70;99.90;;;;;;4997909;28;20481;-74
2021/04/02 04:16:50;;;;;;;8.30;3.27;;;9.70;99.90;;;;;;4997987;28;20974;-74
2021/04/02 04:19:20;;;;;;;3.57;3.27;;;9.70;99.90;;;;;;4997831;28;20453;-74
2021/04/02 04:21:47;;;;;;;4.60;3.63;;;9.70;99.90;;;;;;4998036;28;20450;-74
2021/04/02 04:24:16;;;;;;;6.10;3.70;;;9.70;99.90;;;;;;4997855;28;20481;-74
2021/04/02 04:26:43;;;;;;;6.73;4.30;;;9.70;99.90;;;;;;4998224;28;20476;-74
2021/04/02 04:29:14;;;;;;;5.43;3.87;;;9.70;99.90;;;;;;4998089;28;20970;-74
2021/04/02 04:31:42;;;;;;;4.47;3.87;;;9.60;99.90;;;;;;4998332;28;20442;-74
2021/04/02 04:34:09;;;;;;;3.40;3.10;;;9.50;99.90;;;;;;4998568;28;20481;-74
2021/04/02 04:36:37;;;;;;;3.40;3.10;;;9.50;99.90;;;;;;4998356;28;20797;-74
2021/04/02 04:39:06;;;;;;;4.60;3.20;;;9.50;99.90;;;;;;4998100;28;20489;-74
2021/04/02 04:41:34;;;;;;;5.13;3.37;;;9.40;99.90;;;;;;4997946;28;20975;-73
2021/04/02 04:44:04;;;;;;;4.83;3.60;;;9.30;99.90;;;;;;4999179;28;20540;-74
2021/04/02 04:46:31;;;;;;;5.50;3.23;;;9.20;99.90;;;;;;4999656;28;20481;-74
2021/04/02 04:48:58;;;;;;;6.93;2.93;;;9.10;99.90;;;;;;5000578;28;20504;-74
2021/04/02 04:51:27;;;;;;;5.13;3.33;;;9.00;99.90;;;;;;4999856;28;20832;-74
2021/04/02 04:53:56;;;;;;;4.20;3.80;;;9.00;99.90;;;;;;4999107;28;20477;-74
2021/04/02 04:56:26;;;;;;;4.80;3.13;;;9.00;99.90;;;;;;5000688;28;20453;-74
2021/04/02 04:58:55;;;;;;;4.77;3.13;;;8.90;99.90;;;;;;5001374;28;20433;-74
2021/04/02 05:01:26;;;;;;;6.47;2.67;;;8.90;99.90;;;;;;5000928;28;20457;-74
2021/04/02 05:03:53;;;;;;;4.20;3.37;;;8.90;99.90;;;;;;4999898;28;20488;-74
2021/04/02 05:06:21;;;;;;;6.40;3.30;;;8.90;99.90;;;;;;4999897;28;20453;-74
2021/04/02 05:08:51;;;;;;;3.03;2.73;;;8.90;99.90;;;;;;4999272;28;20450;-73
2021/04/02 05:11:20;;;;;;;4.13;3.17;;;9.00;99.90;;;;;;4998985;28;20454;-73
2021/04/02 05:13:48;;;;;;;3.70;2.73;;;8.90;99.90;;;;;;4998723;28;20898;-75
2021/04/02 05:16:16;;;;;;;4.00;3.70;;;8.80;99.90;;;;;;4999196;28;20502;-75
2021/04/02 05:18:45;;;;;;;6.27;4.27;;;8.80;99.90;;;;;;5001227;28;20468;-75
2021/04/02 05:21:11;;;;;;;6.00;4.23;;;8.80;99.90;;;;;;5000329;28;20492;-75
2021/04/02 05:23:37;;;;;;;6.10;4.00;;;8.70;99.90;;;;;;5000027;28;20832;-74
2021/04/02 05:26:04;;;;;;;4.23;3.90;;;8.60;99.90;;;;;;4999826;28;20473;-75
2021/04/02 05:28:31;;;;;;;6.80;3.57;;;8.70;99.90;;;;;;4999613;28;20460;-75
2021/04/02 05:30:57;;;;;;;3.67;3.37;;;8.70;99.90;;;;;;5000002;28;20458;-74
2021/04/02 05:33:23;;;;;;;6.67;4.30;;;8.80;99.90;;;;;;4999275;28;20485;-73
2021/04/02 05:35:49;;;;;;;7.80;4.10;;;8.80;99.90;;;;;;5000727;28;20469;-74
2021/04/02 05:38:16;;;;;;;5.87;4.30;;;8.90;99.90;;;;;;5000732;28;20460;-75
2021/04/02 05:40:42;;;;;;;4.33;3.93;;;9.00;99.90;;;;;;4996863;28;20458;-71
2021/04/02 05:43:13;;;;;;;8.30;3.90;;;9.10;99.90;;;;;;4996155;28;20473;-71
2021/04/02 05:45:40;;;;;;;10.10;4.43;;;9.10;99.90;;;;;;4996245;28;20446;-71
2021/04/02 05:48:09;;;;;;;4.63;4.23;;;9.10;99.90;;;;;;4996326;28;20508;-71
2021/04/02 05:50:36;;;;;;;5.63;4.00;;;9.00;99.90;;;;;;4996276;28;20488;-71
2021/04/02 05:53:05;;;;;;;5.20;4.70;;;9.00;99.90;;;;;;4995805;28;20489;-71
2021/04/02 05:55:35;;;;;;;6.30;4.70;;;9.00;99.90;;;;;;4997671;28;20485;-71
2021/04/02 05:58:03;;;;;;;5.10;4.37;;;9.00;99.90;;;;;;4997934;28;20445;-71
2021/04/02 06:00:29;;;;;;;5.73;5.17;;;9.00;99.90;;;;;;4995971;28;20446;-71
2021/04/02 06:02:58;;;;;;;5.00;4.50;;;9.00;99.90;;;;;;4995524;28;20482;-70
2021/04/02 06:05:24;;;;;;;7.77;5.07;;;9.20;99.90;;;;;;4994817;28;21011;-71
2021/04/02 06:07:52;;;;;;;5.10;4.53;;;9.40;99.90;;;;;;4997254;28;20529;-71
2021/04/02 06:10:18;;;;;;;4.67;4.27;;;9.70;99.90;;;;;;4997509;28;20457;-71
2021/04/02 06:12:44;;;;;;;5.53;4.70;;;10.20;99.90;;;;;;4997367;28;20493;-70
2021/04/02 06:15:12;;;;;;;7.37;5.00;;;10.60;99.90;;;;;;4998617;28;20465;-70
2021/04/02 06:17:58;;;;;;;7.40;5.13;;;11.00;99.90;;;;;;4997308;28;20454;-70
2021/04/02 06:20:25;;;;;;;5.20;4.70;;;11.30;99.90;;;;;;4995107;28;20949;-70
2021/04/02 06:23:03;;;;;;;5.50;5.00;;;11.70;99.90;;;;;;4995024;28;20846;-71
2021/04/02 06:25:29;;;;;;;5.17;4.67;;;12.10;99.90;;;;;;4995020;28;20449;-70
2021/04/02 06:27:55;;;;;;;4.63;4.20;;;12.10;99.90;;;;;;4995237;28;20457;-69
2021/04/02 06:30:23;;;;;;;5.70;5.00;;;12.30;99.90;;;;;;4995284;28;20454;-71
2021/04/02 06:32:52;;;;;;;6.10;4.73;;;12.30;99.40;;;;;;4995240;28;20493;-70
2021/04/02 06:35:19;;;;;;;5.33;4.83;;;12.70;98.50;;;;;;4994820;28;20979;-71
2021/04/02 06:37:53;;;;;;;6.30;5.50;;;12.90;98.60;;;;;;4995205;28;20460;-71
2021/04/02 06:40:21;;;;;;;6.17;5.00;;;13.30;97.00;;;;;;4997152;28;20451;-71
2021/04/02 06:42:48;;;;;;;6.60;6.00;;;13.70;95.40;;;;;;5003734;28;20844;-72
2021/04/02 06:45:15;;;;;;;6.17;5.37;;;14.10;93.60;;;;;;5011520;28;20453;-70
2021/04/02 06:47:43;;;;;;;7.77;6.07;;;14.10;93.30;;;;;;4995953;28;20453;-71
2021/04/02 06:50:22;;;;;;;5.67;5.17;;;14.00;93.00;;;;;;4995278;28;20561;-71
2021/04/02 06:52:51;;;;;;;8.10;6.73;;;14.40;92.10;;;;;;4994580;28;20987;-72
2021/04/02 06:55:17;;;;;;;6.23;5.73;;;14.10;91.60;;;;;;4995985;28;20458;-72
2021/04/02 06:57:48;;;;;;;5.90;5.40;;;14.30;91.60;;;;;;4994475;28;20813;-71
2021/04/02 07:00:18;;;;;;;7.10;6.03;;;14.70;91.40;;;;;;4994895;28;20438;-71
2021/04/02 07:02:46;;;;;;;6.57;6.07;;;15.10;90.20;;;;;;4995333;28;20480;-71
2021/04/02 07:05:16;;;;;;;7.17;6.50;;;15.80;88.00;;;;;;4994886;28;20453;-73
2021/04/02 07:07:45;;;;;;;7.00;6.50;;;15.60;85.20;;;;;;4994767;28;20485;-72
2021/04/02 07:10:12;;;;;;;6.37;5.87;;;16.00;83.70;;;;;;4994735;28;20840;-72
2021/04/02 07:12:43;;;;;;;6.27;5.77;;;15.80;84.00;;;;;;4994398;28;20825;-72
2021/04/02 07:15:10;;;;;;;6.53;5.93;;;15.90;84.30;;;;;;4994584;28;20473;-70
2021/04/02 07:17:38;;;;;;;7.23;6.63;;;16.30;83.20;;;;;;4994902;28;20477;-72
2021/04/02 07:20:06;;;;;;;9.50;6.60;;;16.20;81.20;;;;;;4994832;28;20454;-72
2021/04/02 07:22:33;;;;;;;6.70;6.07;;;16.50;83.00;;;;;;4994493;28;20998;-71
2021/04/02 07:25:00;;;;;;;7.77;7.17;;;16.80;79.50;;;;;;4994803;28;20956;-71
2021/04/02 07:27:27;;;;;;;7.40;6.77;;;16.50;79.40;;;;;;4994318;28;20462;-71
2021/04/02 07:29:54;;;;;;;8.03;7.33;;;16.40;79.10;;;;;;4994410;28;20460;-71
2021/04/02 07:32:21;;;;;;;7.73;6.20;;;16.00;79.70;;;;;;4994290;28;20547;-71
2021/04/02 07:34:47;;;;;;;8.40;7.70;;;16.30;79.80;;;;;;4994538;28;20458;-71
2021/04/02 07:37:17;;;;;;;7.97;7.37;;;16.50;81.90;;;;;;4994418;28;20453;-72
2021/04/02 07:39:46;;;;;;;7.90;7.30;;;16.50;80.00;;;;;;4994278;28;20473;-72
2021/04/02 07:42:14;;;;;;;9.20;8.40;;;16.90;78.00;;;;;;4993911;28;20964;-72
2021/04/02 07:44:43;;;;;;;8.00;7.30;;;17.40;76.40;;;;;;4994440;28;20454;-71
2021/04/02 07:47:11;;;;;;;8.37;7.57;;;17.50;76.10;;;;;;4994684;28;20462;-71
2021/04/02 07:49:54;;;;;;;9.70;8.80;;;17.80;73.40;;;;;;4994242;28;20532;-72
2021/04/02 07:52:29;;;;;;;11.13;7.87;;;17.40;73.30;;;;;;4993688;28;20983;-72
2021/04/02 07:55:06;;;;;;;7.67;7.07;;;17.60;74.50;;;;;;4994235;28;20458;-72
2021/04/02 07:57:49;;;;;;;8.87;7.87;;;17.90;73.50;;;;;;4994132;28;20458;-71
2021/04/02 08:00:16;;;;;;;10.03;9.20;;;18.30;72.80;;;;;;4994109;28;20442;-72
2021/04/02 08:02:43;;;;;;;8.43;7.70;;;17.90;73.40;;;;;;4993646;28;20848;-72
2021/04/02 08:05:15;;;;;;;10.63;9.33;;;18.40;70.60;;;;;;4993685;28;20481;-72
2021/04/02 08:07:43;;;;;;;8.10;7.50;;;18.50;70.10;;;;;;4993756;28;20918;-71
2021/04/02 08:10:11;;;;;;;8.53;7.87;;;18.00;72.10;;;;;;4993728;28;20484;-72
2021/04/02 08:12:38;;;;;;;8.40;7.60;;;17.60;72.60;;;;;;4993382;28;20857;-71
2021/04/02 08:15:09;;;;;;;8.60;7.50;;;18.10;71.80;;;;;;4993946;28;20458;-72
2021/04/02 08:17:36;;;;;;;8.50;7.80;;;18.80;69.30;;;;;;4993814;28;20457;-72
2021/04/02 08:20:05;;;;;;;9.30;8.50;;;18.50;68.80;;;;;;4993582;28;20464;-72
2021/04/02 08:22:33;;;;;;;8.20;7.43;;;18.40;69.90;;;;;;4994054;28;20833;-70
2021/04/02 08:25:00;;;;;;;8.60;7.83;;;18.80;71.50;;;;;;4993722;28;20967;-71
2021/04/02 08:27:30;;;;;;;11.50;8.80;;;19.40;67.00;;;;;;4993502;28;20457;-72
2021/04/02 08:30:04;;;;;;;9.43;8.63;;;19.00;67.10;;;;;;4996767;28;20868;-71
2021/04/02 08:32:36;;;;;;;9.40;8.60;;;19.00;66.50;;;;;;4997088;28;20488;-70
2021/04/02 08:35:02;;;;;;;9.90;8.80;;;19.20;67.40;;;;;;4997335;28;20457;-70
2021/04/02 08:37:29;;;;;;;9.47;8.67;;;18.70;69.40;;;;;;4997120;28;20928;-72
2021/04/02 08:39:57;;;;;;;9.43;8.50;;;18.60;68.80;;;;;;4997193;28;20485;-72
2021/04/02 08:42:23;;;;;;;8.57;7.70;;;18.30;68.00;;;;;;4997240;28;20457;-70
2021/04/02 08:44:49;;;;;;;10.87;9.70;;;18.60;70.60;;;;;;4997191;28;20468;-70
2021/04/02 08:47:18;;;;;;;8.60;7.93;;;19.10;68.40;;;;;;4997157;28;20450;-69
2021/04/02 08:49:47;;;;;;;8.30;7.73;;;19.70;67.50;;;;;;4997176;28;20461;-71
2021/04/02 08:52:16;;;;;;;9.10;8.50;;;20.50;69.20;;;;;;4997049;28;20565;-71
2021/04/02 08:54:44;;;;;;;8.83;8.23;;;20.60;63.40;;;;;;4996844;28;20454;-71
2021/04/02 08:57:11;;;;;;;9.43;8.73;;;20.50;64.10;;;;;;4996912;28;20464;-71
2021/04/02 08:59:39;;;;;;;9.77;8.87;;;20.50;63.10;;;;;;4996910;28;20457;-71
2021/04/02 09:02:06;;;;;;;9.60;8.90;;;20.50;62.30;;;;;;4996696;28;20456;-71
2021/04/02 09:04:34;;;;;;;9.43;8.67;;;20.40;62.80;;;;;;4995936;28;20485;-72
2021/04/02 09:07:01;;;;;;;8.97;8.37;;;20.60;63.90;;;;;;4996699;28;20600;-72
2021/04/02 09:09:29;;;;;;;10.40;9.40;;;21.10;62.90;;;;;;4996394;28;20458;-72
2021/04/02 09:11:56;;;;;;;9.90;9.00;;;20.60;62.60;;;;;;4996322;28;20458;-72
2021/04/02 09:14:25;;;;;;;9.87;9.10;;;21.30;64.00;;;;;;4996926;28;20524;-72
2021/04/02 09:16:55;;;;;;;10.20;9.50;;;21.30;60.80;;;;;;4996863;28;20948;-72
2021/04/02 09:19:22;;;;;;;9.40;8.70;;;21.40;61.50;;;;;;4998599;28;20815;-71
2021/04/02 09:21:51;;;;;;;10.40;9.60;;;21.10;59.50;;;;;;4999570;28;20456;-72
2021/04/02 09:24:18;;;;;;;11.03;9.97;;;21.00;60.00;;;;;;5008618;28;20473;-72
2021/04/02 09:26:44;;;;;;;9.57;8.83;;;20.50;61.70;;;;;;4999028;28;20580;-71
2021/04/02 09:29:11;;;;;;;10.70;9.70;;;20.60;61.90;;;;;;4997433;28;20458;-72
2021/04/02 09:31:41;;;;;;;11.60;10.60;;;19.70;61.50;;;;;;4996835;28;20941;-71
2021/04/02 09:34:09;;;;;;;10.33;9.63;;;18.60;64.70;;;;;;4996618;28;20508;-72
2021/04/02 09:36:37;;;;;;;11.17;10.20;;;18.90;66.00;;;;;;4997148;28;20461;-71
2021/04/02 09:39:10;;;;;;;10.23;9.43;;;19.40;64.30;;;;;;4997241;28;20461;-71
2021/04/02 09:41:37;;;;;;;10.60;9.80;;;19.90;64.20;;;;;;4996943;28;20438;-71
2021/04/02 09:44:09;;;;;;;9.93;9.10;;;20.40;61.90;;;;;;4997797;28;20474;-70
2021/04/02 09:46:37;;;;;;;11.03;10.13;;;20.90;63.10;;;;;;4997128;28;20457;-71
2021/04/02 09:49:06;;;;;;;13.13;12.23;;;20.80;61.10;;;;;;4996625;28;20889;-71
2021/04/02 09:51:34;;;;;;;10.40;9.60;;;21.80;61.90;;;;;;4997549;28;20460;-71
2021/04/02 09:54:01;;;;;;;9.40;8.80;;;22.40;60.00;;;;;;4997266;28;20486;-70
2021/04/02 09:56:28;;;;;;;10.60;9.70;;;23.00;56.90;;;;;;4997478;28;20457;-72
2021/04/02 09:58:54;;;;;;;10.80;10.00;;;22.30;57.30;;;;;;4997437;28;20855;-72
2021/04/02 10:01:21;;;;;;;11.10;10.20;;;22.00;61.20;;;;;;4996803;28;20442;-70
2021/04/02 10:03:47;;;;;;;12.70;10.83;;;22.20;59.50;;;;;;4996704;28;20477;-70
2021/04/02 10:06:14;;;;;;;10.90;10.00;;;22.90;57.80;;;;;;4997369;28;20462;-71
2021/04/02 10:08:40;;;;;;;10.30;9.60;;;22.70;56.90;;;;;;4997033;28;20465;-70
2021/04/02 10:11:07;;;;;;;10.23;9.33;;;23.20;57.00;;;;;;4996896;28;20538;-70
2021/04/02 10:13:34;;;;;;;10.27;9.57;;;23.60;55.20;;;;;;4997113;28;20485;-71
2021/04/02 10:16:01;;;;;;;10.27;9.57;;;23.60;58.20;;;;;;4997016;28;20458;-70
2021/04/02 10:18:28;;;;;;;10.73;9.60;;;23.80;54.40;;;;;;4997112;28;20817;-70
2021/04/02 10:20:54;;;;;;;10.90;10.10;;;24.70;54.10;;;;;;4998017;28;20461;-70
2021/04/02 10:23:21;;;;;;;9.97;9.17;;;23.80;53.50;;;;;;4997182;28;20492;-70
2021/04/02 10:25:47;;;;;;;10.07;9.37;;;23.70;55.20;;;;;;4996551;28;20438;-69
2021/04/02 10:28:14;;;;;;;11.47;10.33;;;22.60;54.50;;;;;;4995937;28;20438;-71
2021/04/02 10:30:41;;;;;;;11.10;10.10;;;21.00;55.20;;;;;;4995870;28;20512;-70
2021/04/02 10:33:07;;;;;;;10.70;9.73;;;19.70;56.70;;;;;;4995411;28;20988;-69
2021/04/02 10:35:35;;;;;;;9.90;9.00;;;20.20;59.80;;;;;;4996178;28;20454;-70
2021/04/02 10:38:02;;;;;;;9.77;8.90;;;20.30;58.40;;;;;;4995525;28;20955;-70
2021/04/02 10:40:28;;;;;;;9.33;8.63;;;20.50;57.80;;;;;;4996060;28;20465;-71
2021/04/02 10:42:54;;;;;;;10.10;9.10;;;21.20;56.80;;;;;;4995927;28;20481;-70
2021/04/02 10:45:20;;;;;;;10.30;9.50;;;21.90;54.70;;;;;;4995395;28;20913;-70
2021/04/02 10:47:47;;;;;;;8.97;8.33;;;22.50;52.80;;;;;;4995624;28;20505;-70
2021/04/02 10:50:14;;;;;;;7.97;7.37;;;21.10;54.90;;;;;;4995644;28;20445;-70
2021/04/02 10:52:40;;;;;;;8.73;8.13;;;20.80;57.00;;;;;;4995136;28;20486;-70
2021/04/02 10:55:08;;;;;;;8.73;8.03;;;20.80;56.90;;;;;;4995334;28;20788;-72
2021/04/02 10:57:34;;;;;;;7.77;7.23;;;21.40;57.10;;;;;;4995436;28;20458;-71
2021/04/02 11:00:00;;;;;;;8.10;7.50;;;22.00;55.60;;;;;;4995558;28;20460;-71
2021/04/02 11:02:27;;;;;;;8.40;7.80;;;22.20;54.00;;;;;;4995092;28;20438;-70
2021/04/02 11:04:54;;;;;;;7.80;7.20;;;21.40;55.00;;;;;;4995008;28;20446;-71
2021/04/02 11:07:20;;;;;;;8.50;7.90;;;21.00;55.40;;;;;;4995034;28;20920;-71
2021/04/02 11:09:46;;;;;;;8.20;7.70;;;20.20;56.80;;;;;;4995468;28;20464;-71
2021/04/02 11:12:13;;;;;;;8.77;7.97;;;19.90;59.40;;;;;;4995136;28;20454;-70
2021/04/02 11:14:39;;;;;;;7.83;7.23;;;19.60;58.70;;;;;;4994964;28;20453;-72
2021/04/02 11:17:05;;;;;;;8.40;7.70;;;19.70;56.80;;;;;;4995298;28;20465;-72
2021/04/02 11:19:31;;;;;;;8.77;7.63;;;19.20;56.80;;;;;;4994918;28;20971;-71
2021/04/02 11:21:59;;;;;;;8.93;8.30;;;19.00;58.80;;;;;;4995468;28;20462;-70
2021/04/02 11:24:25;;;;;;;7.20;6.70;;;19.10;60.90;;;;;;4995573;28;21007;-71
2021/04/02 11:26:51;;;;;;;7.37;6.80;;;19.10;58.80;;;;;;4995304;28;20464;-70
2021/04/02 11:29:18;;;;;;;7.83;7.23;;;19.40;59.30;;;;;;4995616;28;20457;-70
2021/04/02 11:31:44;;;;;;;7.70;7.00;;;19.80;57.40;;;;;;4995028;28;20457;-71
2021/04/02 11:34:10;;;;;;;6.77;6.20;;;19.20;57.70;;;;;;4994621;28;21014;-70
2021/04/02 11:36:36;;;;;;;7.23;6.73;;;19.00;58.80;;;;;;4995013;28;20512;-71
2021/04/02 11:39:04;;;;;;;7.63;7.03;;;18.70;59.40;;;;;;4995028;28;20434;-71
2021/04/02 11:41:30;;;;;;;7.03;6.53;;;18.50;59.20;;;;;;4994560;28;20446;-70
2021/04/02 11:43:56;;;;;;;7.93;7.33;;;18.00;59.80;;;;;;4994565;28;20474;-71
2021/04/02 11:46:23;;;;;;;7.20;6.80;;;17.80;62.90;;;;;;4995989;28;20465;-71
2021/04/02 11:48:49;;;;;;;7.00;6.50;;;17.10;59.50;;;;;;4996575;28;20453;-71
2021/04/02 11:51:15;;;;;;;7.20;6.70;;;17.10;64.40;;;;;;4996013;28;20461;-71
2021/04/02 11:53:41;;;;;;;8.23;7.53;;;17.40;65.60;;;;;;4996419;28;20481;-72
2021/04/02 11:56:08;;;;;;;7.30;6.80;;;17.40;61.70;;;;;;4995536;28;20453;-71
2021/04/02 11:58:35;;;;;;;7.67;6.97;;;17.80;60.80;;;;;;4994821;28;20976;-71
2021/04/02 12:01:01;;;;;;;7.07;6.57;;;17.60;60.70;;;;;;4995396;28;20472;-72
2021/04/02 12:03:28;;;;;;;6.50;6.10;;;17.50;60.70;;;;;;4995413;28;20493;-73
2021/04/02 12:05:54;;;;;;;8.10;7.50;;;17.60;62.50;;;;;;4998646;28;20464;-71
2021/04/02 12:08:21;;;;;;;6.13;5.63;;;17.60;61.90;;;;;;4999003;28;20466;-72
2021/04/02 12:10:47;;;;;;;6.50;6.10;;;17.90;63.90;;;;;;4998424;28;20532;-71
2021/04/02 12:13:14;;;;;;;6.97;6.47;;;18.30;61.10;;;;;;4998676;28;20489;-71
2021/04/02 12:15:41;;;;;;;6.97;6.47;;;18.00;58.20;;;;;;4998194;28;20561;-72
2021/04/02 12:18:08;;;;;;;6.20;5.70;;;17.80;58.50;;;;;;4998286;28;20461;-71
2021/04/02 12:20:34;;;;;;;6.23;5.83;;;17.70;61.90;;;;;;4997931;28;20545;-71
2021/04/02 12:23:00;;;;;;;6.30;5.87;;;17.30;58.90;;;;;;4997776;28;20473;-71
2021/04/02 12:25:28;;;;;;;6.70;6.20;;;17.20;60.90;;;;;;4997693;28;20473;-71
2021/04/02 12:27:54;;;;;;;6.20;5.60;;;17.20;58.10;;;;;;4997582;28;20875;-71
2021/04/02 12:30:22;;;;;;;8.53;6.10;;;17.00;60.90;;;;;;4997526;28;20454;-71
2021/04/02 12:32:48;;;;;;;6.23;5.77;;;17.50;64.70;;;;;;4997473;28;20489;-71
2021/04/02 12:35:14;;;;;;;5.40;5.00;;;17.30;59.30;;;;;;4997094;28;20457;-71
2021/04/02 12:37:41;;;;;;;6.00;5.57;;;17.80;60.10;;;;;;4997389;28;20512;-71
2021/04/02 12:40:10;;;;;;;6.13;5.77;;;17.70;59.40;;;;;;5012379;28;20458;-71
2021/04/02 12:42:36;;;;;;;5.13;4.83;;;17.70;61.10;;;;;;5018671;28;20453;-71
2021/04/02 12:45:04;;;;;;;6.50;5.90;;;17.90;59.00;;;;;;5001510;28;20488;-71
2021/04/02 12:47:31;;;;;;;5.80;5.40;;;18.00;59.40;;;;;;4997921;28;20465;-70